Time;durP1;ratioP1;P1;durP2;ratioP2;P2;SDS_P1;SDS_P2;PMS_P1;PMS_P2;Temp;Humidity;BMP_temperature;BMP_pressure;BME280_temperature;BME280_humidity;BME280_pressure;Samples;Min_cycle;Max_cycle;Signal;HPM_P1;HPM_P2
2023/10/11 00:02:57;;;;;;;9.68;9.18;;;;;;;;;;5060724;28;20381;-61
2023/10/11 00:05:24;;;;;;;9.40;9.00;;;;;;;;;;5071656;28;20774;-61
2023/10/11 00:07:51;;;;;;;9.85;9.35;;;;;;;;;;5071203;28;20028;-61
2023/10/11 00:10:19;;;;;;;10.75;10.15;;;;;;;;;;5059017;28;20109;-62
2023/10/11 00:12:50;;;;;;;9.60;9.10;;;;;;;;;;5068978;28;20113;-62
2023/10/11 00:15:15;;;;;;;9.70;9.20;;;;;;;;;;5073311;28;20027;-62
2023/10/11 00:17:46;;;;;;;8.75;8.35;;;;;;;;;;5067881;28;20052;-62
2023/10/11 00:20:19;;;;;;;9.90;9.40;;;;;;;;;;5069985;28;20390;-62
2023/10/11 00:22:45;;;;;;;9.10;8.70;;;;;;;;;;5079353;28;20027;-62
2023/10/11 00:25:12;;;;;;;9.35;8.90;;;;;;;;;;5073765;28;20489;-61
2023/10/11 00:27:39;;;;;;;8.75;8.35;;;;;;;;;;5079559;28;20024;-61
2023/10/11 00:30:06;;;;;;;9.20;8.80;;;;;;;;;;5069034;28;20027;-62
2023/10/11 00:32:31;;;;;;;9.60;9.10;;;;;;;;;;5064408;28;20024;-61
2023/10/11 00:34:56;;;;;;;9.10;8.70;;;;;;;;;;5076973;28;20024;-61
2023/10/11 00:37:22;;;;;;;9.20;8.80;;;;;;;;;;5069473;28;20040;-62
2023/10/11 00:39:47;;;;;;;8.60;8.20;;;;;;;;;;5071292;28;20067;-61
2023/10/11 00:42:13;;;;;;;9.02;8.63;;;;;;;;;;5076495;28;20067;-61
2023/10/11 00:44:40;;;;;;;9.75;9.25;;;;;;;;;;5074785;28;20392;-61
2023/10/11 00:47:08;;;;;;;9.38;8.98;;;;;;;;;;5069128;28;20086;-61
2023/10/11 00:49:39;;;;;;;9.65;9.15;;;;;;;;;;5070916;28;20029;-62
2023/10/11 00:52:08;;;;;;;9.13;8.73;;;;;;;;;;5075033;28;20029;-61
2023/10/11 00:54:35;;;;;;;8.98;8.57;;;;;;;;;;5068458;28;20024;-62
2023/10/11 00:57:00;;;;;;;9.88;9.38;;;;;;;;;;5077072;28;20534;-61
2023/10/11 00:59:27;;;;;;;9.48;8.98;;;;;;;;;;5081083;28;20032;-62
2023/10/11 01:01:55;;;;;;;8.80;8.40;;;;;;;;;;5077252;28;20400;-61
2023/10/11 01:04:21;;;;;;;8.68;8.27;;;;;;;;;;5082495;28;20396;-61
2023/10/11 01:06:49;;;;;;;8.90;8.50;;;;;;;;;;5074163;28;20085;-61
2023/10/11 01:09:18;;;;;;;9.55;9.05;;;;;;;;;;5082067;28;20056;-62
2023/10/11 01:11:45;;;;;;;9.55;9.05;;;;;;;;;;5070655;28;20078;-62
2023/10/11 01:14:11;;;;;;;9.07;8.68;;;;;;;;;;5069057;28;20042;-61
2023/10/11 01:16:37;;;;;;;8.95;8.55;;;;;;;;;;5069793;28;20032;-63
2023/10/11 01:19:07;;;;;;;8.73;8.32;;;;;;;;;;5071551;28;20051;-62
2023/10/11 01:21:34;;;;;;;9.70;9.20;;;;;;;;;;5069673;28;20032;-63
2023/10/11 01:23:59;;;;;;;9.35;8.90;;;;;;;;;;5075476;28;20080;-62
2023/10/11 01:26:27;;;;;;;9.25;8.85;;;;;;;;;;5066937;28;20037;-61
2023/10/11 01:28:56;;;;;;;8.77;8.38;;;;;;;;;;5079275;28;20031;-63
2023/10/11 01:31:21;;;;;;;8.65;8.25;;;;;;;;;;5073011;28;20386;-61
2023/10/11 01:33:49;;;;;;;9.38;8.88;;;;;;;;;;5069352;28;20028;-61
2023/10/11 01:36:23;;;;;;;9.20;8.80;;;;;;;;;;5069505;28;20056;-63
2023/10/11 01:38:48;;;;;;;8.88;8.48;;;;;;;;;;5080137;28;20042;-63
2023/10/11 01:41:21;;;;;;;8.88;8.48;;;;;;;;;;5073257;28;20480;-61
2023/10/11 01:43:49;;;;;;;9.18;8.77;;;;;;;;;;5069841;28;20028;-62
2023/10/11 01:46:21;;;;;;;8.68;8.27;;;;;;;;;;5074991;28;20043;-62
2023/10/11 01:48:46;;;;;;;9.73;9.23;;;;;;;;;;5070248;28;20020;-62
2023/10/11 01:51:20;;;;;;;9.43;8.98;;;;;;;;;;5068115;28;20118;-62
2023/10/11 01:53:45;;;;;;;9.30;8.85;;;;;;;;;;5077436;28;20129;-63
2023/10/11 01:56:13;;;;;;;8.98;8.57;;;;;;;;;;5073378;28;20048;-62
2023/10/11 01:58:42;;;;;;;10.55;9.95;;;;;;;;;;5082274;28;20492;-62
2023/10/11 02:01:17;;;;;;;8.70;8.30;;;;;;;;;;5072062;28;20021;-62
2023/10/11 02:03:42;;;;;;;9.93;9.43;;;;;;;;;;5067081;28;20587;-62
2023/10/11 02:06:07;;;;;;;10.27;9.75;;;;;;;;;;5067751;28;20108;-61
2023/10/11 02:08:36;;;;;;;9.68;9.18;;;;;;;;;;5081323;28;20028;-62
2023/10/11 02:11:05;;;;;;;9.15;8.75;;;;;;;;;;5077860;28;20024;-61
2023/10/11 02:13:30;;;;;;;8.90;8.50;;;;;;;;;;5072058;28;20048;-62
2023/10/11 02:16:00;;;;;;;8.77;8.38;;;;;;;;;;5088168;28;20020;-62
2023/10/11 02:18:26;;;;;;;8.98;8.57;;;;;;;;;;5067765;28;20435;-62
2023/10/11 02:20:55;;;;;;;9.70;9.20;;;;;;;;;;5071923;28;20393;-62
2023/10/11 02:23:25;;;;;;;10.65;10.05;;;;;;;;;;5076736;28;20046;-62
2023/10/11 02:25:51;;;;;;;8.85;8.45;;;;;;;;;;5071078;28;20024;-62
2023/10/11 02:28:17;;;;;;;8.60;8.20;;;;;;;;;;5065029;28;20043;-61
2023/10/11 02:30:43;;;;;;;9.50;9.00;;;;;;;;;;5070989;28;20043;-62
2023/10/11 02:33:11;;;;;;;9.77;9.27;;;;;;;;;;5073055;28;20016;-62
2023/10/11 02:35:56;;;;;;;8.73;8.32;;;;;;;;;;5071147;28;20033;-63
2023/10/11 02:38:23;;;;;;;10.32;9.73;;;;;;;;;;5078414;28;20445;-63
2023/10/11 02:40:58;;;;;;;8.70;8.30;;;;;;;;;;5067429;28;20031;-61
2023/10/11 02:43:24;;;;;;;9.35;8.85;;;;;;;;;;5076943;28;20430;-62
2023/10/11 02:45:50;;;;;;;9.57;9.07;;;;;;;;;;5065963;28;20086;-62
2023/10/11 02:48:19;;;;;;;8.90;8.50;;;;;;;;;;5079884;28;20019;-59
2023/10/11 02:50:46;;;;;;;8.85;8.45;;;;;;;;;;5076057;28;20016;-61
2023/10/11 02:53:21;;;;;;;9.55;9.05;;;;;;;;;;5080204;28;20055;-61
2023/10/11 02:55:59;;;;;;;10.15;9.65;;;;;;;;;;5078125;28;20126;-61
2023/10/11 02:58:29;;;;;;;9.52;9.02;;;;;;;;;;5071973;28;20036;-61
2023/10/11 03:01:05;;;;;;;8.80;8.40;;;;;;;;;;5069983;28;20021;-62
2023/10/11 03:03:31;;;;;;;9.65;9.15;;;;;;;;;;5070155;28;20024;-63
2023/10/11 03:05:56;;;;;;;11.85;11.15;;;;;;;;;;5059414;28;20082;-62
2023/10/11 03:08:21;;;;;;;8.98;8.57;;;;;;;;;;5073274;28;20029;-62
2023/10/11 03:10:54;;;;;;;9.52;9.02;;;;;;;;;;5064218;28;20106;-62
2023/10/11 03:13:24;;;;;;;9.73;9.23;;;;;;;;;;5067263;28;20060;-61
2023/10/11 03:15:56;;;;;;;9.95;9.45;;;;;;;;;;5071611;28;20057;-61
2023/10/11 03:18:32;;;;;;;8.98;8.57;;;;;;;;;;5072114;28;20484;-62
2023/10/11 03:21:07;;;;;;;9.00;8.60;;;;;;;;;;5072672;28;20103;-63
2023/10/11 03:23:36;;;;;;;9.55;9.05;;;;;;;;;;5067035;28;20028;-62
2023/10/11 03:26:17;;;;;;;9.73;9.23;;;;;;;;;;5071440;28;20203;-62
2023/10/11 03:28:45;;;;;;;9.07;8.68;;;;;;;;;;5073173;28;20040;-61
2023/10/11 03:31:12;;;;;;;8.82;8.43;;;;;;;;;;5067648;28;20028;-61
2023/10/11 03:33:40;;;;;;;9.05;8.65;;;;;;;;;;5072153;28;20024;-62
2023/10/11 03:36:08;;;;;;;9.73;9.23;;;;;;;;;;5069241;28;20074;-61
2023/10/11 03:38:41;;;;;;;10.55;9.95;;;;;;;;;;5075378;28;20029;-60
2023/10/11 03:41:15;;;;;;;9.02;8.63;;;;;;;;;;5079966;28;20387;-63
2023/10/11 03:43:40;;;;;;;;;;;;;;;;;;5064671;28;20070;-61
2023/10/11 03:46:06;;;;;;;8.95;8.55;;;;;;;;;;5079190;28;19947;-62
2023/10/11 03:48:43;;;;;;;10.27;9.68;;;;;;;;;;5071244;28;20040;-62
2023/10/11 03:51:09;;;;;;;9.38;8.88;;;;;;;;;;5068333;28;20028;-62
2023/10/11 03:53:39;;;;;;;9.07;8.68;;;;;;;;;;5071538;28;20105;-62
2023/10/11 03:56:04;;;;;;;8.93;8.52;;;;;;;;;;5063722;28;20013;-61
2023/10/11 03:58:33;;;;;;;9.70;9.20;;;;;;;;;;5075380;28;20082;-62
2023/10/11 04:01:11;;;;;;;9.65;9.15;;;;;;;;;;5072449;28;20027;-61
2023/10/11 04:03:39;;;;;;;8.70;8.30;;;;;;;;;;5072902;28;20033;-63
2023/10/11 04:06:13;;;;;;;9.63;9.13;;;;;;;;;;5069429;28;20036;-62
2023/10/11 04:08:41;;;;;;;9.65;9.15;;;;;;;;;;5064563;28;20032;-61
2023/10/11 04:11:14;;;;;;;9.18;8.70;;;;;;;;;;5062512;28;20405;-61
2023/10/11 04:13:44;;;;;;;9.50;9.00;;;;;;;;;;5061548;28;20118;-62
2023/10/11 04:16:10;;;;;;;9.25;8.82;;;;;;;;;;5073802;28;20037;-61
2023/10/11 04:18:37;;;;;;;11.40;10.70;;;;;;;;;;5069017;28;20013;-62
2023/10/11 04:23:35;;;;;;;9.85;9.35;;;;;;;;;;5066350;28;20139;-61
2023/10/11 04:26:07;;;;;;;9.90;9.40;;;;;;;;;;5059815;28;20137;-63
2023/10/11 04:28:32;;;;;;;10.65;10.05;;;;;;;;;;5064025;28;20174;-62
2023/10/11 04:31:28;;;;;;;10.02;9.52;;;;;;;;;;5072030;28;20116;-61
2023/10/11 04:33:50;;;;;;;9.93;9.43;;;;;;;;;;5062382;28;20390;-60
2023/10/11 04:36:20;;;;;;;10.00;9.50;;;;;;;;;;5069517;28;20031;-61
2023/10/11 04:38:47;;;;;;;9.93;9.43;;;;;;;;;;5074298;28;20792;-61
2023/10/11 04:41:16;;;;;;;9.90;9.40;;;;;;;;;;5069414;28;20046;-61
2023/10/11 04:43:50;;;;;;;9.98;9.48;;;;;;;;;;5058209;28;20028;-61
2023/10/11 04:46:16;;;;;;;9.80;9.30;;;;;;;;;;5062608;28;20147;-60
2023/10/11 04:48:42;;;;;;;9.40;8.90;;;;;;;;;;5062214;28;20093;-59
2023/10/11 04:51:21;;;;;;;10.98;10.38;;;;;;;;;;5064646;28;20027;-58
2023/10/11 04:59:05;;;;;;;11.20;10.60;;;;;;;;;;5064151;28;20524;-62
2023/10/11 05:01:45;;;;;;;10.32;9.82;;;;;;;;;;5059275;28;20036;-61
2023/10/11 05:04:14;;;;;;;10.30;9.80;;;;;;;;;;5056976;28;20020;-62
2023/10/11 05:06:41;;;;;;;10.18;9.68;;;;;;;;;;5058659;28;20032;-63
2023/10/11 05:11:46;;;;;;;9.13;8.73;;;;;;;;;;5066863;28;20024;-63
2023/10/11 05:14:29;;;;;;;10.63;10.13;;;;;;;;;;5067389;28;20127;-62
2023/10/11 05:16:59;;;;;;;10.20;9.70;;;;;;;;;;5057643;28;20864;-61
2023/10/11 05:19:28;;;;;;;10.68;10.18;;;;;;;;;;5063691;28;20025;-61
2023/10/11 05:21:54;;;;;;;10.60;10.10;;;;;;;;;;5065420;28;20024;-62
2023/10/11 05:27:25;;;;;;;10.90;10.40;;;;;;;;;;5064490;28;20118;-61
2023/10/11 05:32:41;;;;;;;10.80;10.30;;;;;;;;;;5060205;28;20390;-62
2023/10/11 05:51:21;;;;;;;11.02;10.52;;;;;;;;;;5066060;28;20043;-61
2023/10/11 05:53:49;;;;;;;11.07;10.57;;;;;;;;;;5068086;28;20429;-62
2023/10/11 05:56:20;;;;;;;11.60;11.10;;;;;;;;;;5062056;28;20031;-62
2023/10/11 05:58:55;;;;;;;11.50;11.00;;;;;;;;;;5060641;28;20025;-64
2023/10/11 06:01:21;;;;;;;11.07;10.57;;;;;;;;;;5065976;28;20029;-62
2023/10/11 06:03:48;;;;;;;11.38;10.88;;;;;;;;;;5064246;28;20033;-63
2023/10/11 06:06:31;;;;;;;11.60;11.10;;;;;;;;;;5064959;28;20051;-65
2023/10/11 06:08:57;;;;;;;12.55;11.95;;;;;;;;;;5049357;28;20274;-62
2023/10/11 06:11:24;;;;;;;12.55;11.95;;;;;;;;;;5067767;28;20033;-63
2023/10/11 06:13:52;;;;;;;11.50;11.00;;;;;;;;;;5058843;28;20044;-64
2023/10/11 06:16:19;;;;;;;12.13;11.63;;;;;;;;;;5062573;28;20020;-63
2023/10/11 06:18:55;;;;;;;12.15;11.65;;;;;;;;;;5061044;28;20037;-62
2023/10/11 06:21:33;;;;;;;12.05;11.55;;;;;;;;;;5058797;28;20419;-63
2023/10/11 06:24:05;;;;;;;12.10;11.60;;;;;;;;;;5072090;28;20032;-63
2023/10/11 06:29:08;;;;;;;12.02;11.52;;;;;;;;;;5073799;28;20117;-62
2023/10/11 06:31:39;;;;;;;12.20;11.70;;;;;;;;;;5071020;28;20086;-64
2023/10/11 06:34:15;;;;;;;12.10;11.60;;;;;;;;;;5067294;28;20134;-63
2023/10/11 06:36:41;;;;;;;11.77;11.27;;;;;;;;;;5065370;28;20028;-62
2023/10/11 06:39:29;;;;;;;12.00;11.50;;;;;;;;;;5056373;28;20021;-63
2023/10/11 06:41:52;;;;;;;12.27;11.75;;;;;;;;;;5064263;28;20045;-64
2023/10/11 06:44:18;;;;;;;12.23;11.73;;;;;;;;;;5062059;28;20024;-63
2023/10/11 06:46:47;;;;;;;11.90;11.40;;;;;;;;;;5065631;28;20435;-64
2023/10/11 06:49:14;;;;;;;11.75;11.25;;;;;;;;;;5058978;28;20142;-64
2023/10/11 06:51:41;;;;;;;11.98;11.48;;;;;;;;;;5066572;28;20164;-63
2023/10/11 06:54:07;;;;;;;11.88;11.38;;;;;;;;;;5068918;28;20026;-66
2023/10/11 06:56:32;;;;;;;12.00;11.50;;;;;;;;;;5059615;28;20029;-64
2023/10/11 06:59:00;;;;;;;11.70;11.20;;;;;;;;;;5059309;28;20020;-62
2023/10/11 07:01:30;;;;;;;12.02;11.52;;;;;;;;;;5057634;28;21013;-62
2023/10/11 07:03:57;;;;;;;11.48;10.98;;;;;;;;;;5070184;28;20030;-64
2023/10/11 07:06:22;;;;;;;11.80;11.30;;;;;;;;;;5064612;28;20171;-63
2023/10/11 07:08:50;;;;;;;11.68;11.18;;;;;;;;;;5059890;28;20111;-63
2023/10/11 07:11:36;;;;;;;11.98;11.48;;;;;;;;;;5059945;28;20047;-63
2023/10/11 07:14:05;;;;;;;11.90;11.40;;;;;;;;;;5063406;28;20037;-63
2023/10/11 07:16:31;;;;;;;11.40;10.90;;;;;;;;;;5065413;28;20028;-64
2023/10/11 07:18:58;;;;;;;11.57;11.07;;;;;;;;;;5056792;28;20029;-65
2023/10/11 07:21:27;;;;;;;11.35;10.85;;;;;;;;;;5061602;28;20159;-64
2023/10/11 07:28:59;;;;;;;11.77;11.27;;;;;;;;;;5058162;28;20021;-63
2023/10/11 07:31:31;;;;;;;11.48;10.98;;;;;;;;;;5057497;28;20111;-64
2023/10/11 07:33:57;;;;;;;11.75;11.25;;;;;;;;;;5058071;28;20094;-63
2023/10/11 07:36:23;;;;;;;11.82;11.32;;;;;;;;;;5058259;28;20036;-63
2023/10/11 07:38:54;;;;;;;11.90;11.40;;;;;;;;;;5063190;28;20496;-64
2023/10/11 07:41:21;;;;;;;12.10;11.60;;;;;;;;;;5058370;28;20021;-62
2023/10/11 07:43:46;;;;;;;12.02;11.52;;;;;;;;;;5057916;28;20503;-63
2023/10/11 07:46:12;;;;;;;11.70;11.20;;;;;;;;;;5058059;28;20124;-62
2023/10/11 07:48:39;;;;;;;12.07;11.57;;;;;;;;;;5061576;28;20304;-63
2023/10/11 07:51:10;;;;;;;12.27;11.77;;;;;;;;;;5060465;28;20107;-64
2023/10/11 07:53:43;;;;;;;11.75;11.25;;;;;;;;;;5057401;28;20036;-62
2023/10/11 07:56:15;;;;;;;11.95;11.45;;;;;;;;;;5064872;28;20028;-61
2023/10/11 07:58:45;;;;;;;11.55;11.05;;;;;;;;;;5058855;28;20028;-65
2023/10/11 08:01:30;;;;;;;11.60;11.10;;;;;;;;;;5055697;28;20871;-64
2023/10/11 08:03:56;;;;;;;11.52;11.02;;;;;;;;;;5060677;28;20070;-64
2023/10/11 08:06:25;;;;;;;12.05;11.55;;;;;;;;;;5068949;28;20031;-63
2023/10/11 08:08:59;;;;;;;11.95;11.45;;;;;;;;;;5065614;28;20033;-62
2023/10/11 08:11:24;;;;;;;;;;;;;;;;;;5059742;28;20091;-65
2023/10/11 08:13:50;;;;;;;11.63;11.13;;;;;;;;;;5070363;28;20391;-63
2023/10/11 08:16:18;;;;;;;11.90;11.40;;;;;;;;;;5061945;28;20024;-62
2023/10/11 08:18:45;;;;;;;11.45;10.95;;;;;;;;;;5056070;28;20020;-62
2023/10/11 08:21:11;;;;;;;12.43;11.88;;;;;;;;;;5062523;28;20096;-65
2023/10/11 08:23:42;;;;;;;12.10;11.60;;;;;;;;;;5055150;28;20020;-65
2023/10/11 08:26:08;;;;;;;11.90;11.40;;;;;;;;;;5063535;28;20027;-64
2023/10/11 08:28:34;;;;;;;12.02;11.52;;;;;;;;;;5061236;28;20032;-65
2023/10/11 08:31:00;;;;;;;12.57;11.98;;;;;;;;;;5063417;28;20044;-65
2023/10/11 08:33:30;;;;;;;11.93;11.43;;;;;;;;;;5061602;28;20386;-63
2023/10/11 08:35:55;;;;;;;12.77;12.18;;;;;;;;;;5056191;28;20512;-63
2023/10/11 08:38:24;;;;;;;11.45;10.95;;;;;;;;;;5062876;28;20016;-66
2023/10/11 08:40:50;;;;;;;12.43;11.90;;;;;;;;;;5064929;28;20044;-65
2023/10/11 08:43:16;;;;;;;11.82;11.32;;;;;;;;;;5069560;28;20543;-63
2023/10/11 08:45:49;;;;;;;11.77;11.27;;;;;;;;;;5063366;28;20104;-64
2023/10/11 08:48:15;;;;;;;11.93;11.43;;;;;;;;;;5072958;28;20024;-64
2023/10/11 08:50:51;;;;;;;11.60;11.10;;;;;;;;;;5060076;28;20632;-62
2023/10/11 08:53:17;;;;;;;11.93;11.43;;;;;;;;;;5068916;28;20024;-62
2023/10/11 08:55:43;;;;;;;12.20;11.70;;;;;;;;;;5057344;28;20029;-62
2023/10/11 08:58:23;;;;;;;12.20;11.68;;;;;;;;;;5067808;28;20486;-62
2023/10/11 09:00:54;;;;;;;12.30;11.80;;;;;;;;;;5058228;28;20159;-63
2023/10/11 09:03:20;;;;;;;11.95;11.45;;;;;;;;;;5061639;28;20021;-63
2023/10/11 09:05:47;;;;;;;12.07;11.57;;;;;;;;;;5062513;28;20025;-62
2023/10/11 09:08:21;;;;;;;11.77;11.27;;;;;;;;;;5059493;28;20094;-62
2023/10/11 09:10:49;;;;;;;11.80;11.30;;;;;;;;;;5064362;28;20503;-63
2023/10/11 09:13:24;;;;;;;11.75;11.25;;;;;;;;;;5061329;28;20111;-64
2023/10/11 09:15:54;;;;;;;11.77;11.27;;;;;;;;;;5075154;28;20371;-62
2023/10/11 09:18:20;;;;;;;11.73;11.23;;;;;;;;;;5065780;28;20079;-61
2023/10/11 09:23:39;;;;;;;12.20;11.70;;;;;;;;;;5064945;28;20035;-62
2023/10/11 09:26:05;;;;;;;12.98;12.38;;;;;;;;;;5064632;28;20031;-61
2023/10/11 09:28:33;;;;;;;12.55;11.95;;;;;;;;;;5064392;28;20033;-62
2023/10/11 09:31:11;;;;;;;12.55;11.95;;;;;;;;;;5067581;28;20032;-64
2023/10/11 09:33:40;;;;;;;12.82;12.23;;;;;;;;;;5061569;28;20028;-62
2023/10/11 09:36:06;;;;;;;13.38;12.77;;;;;;;;;;5056588;28;20067;-65
2023/10/11 09:38:39;;;;;;;13.07;12.48;;;;;;;;;;5063261;28;20068;-63
2023/10/11 09:41:08;;;;;;;13.48;12.88;;;;;;;;;;5063400;28;20028;-63
2023/10/11 09:43:41;;;;;;;12.88;12.27;;;;;;;;;;5066542;28;20036;-64
2023/10/11 09:46:11;;;;;;;13.30;12.70;;;;;;;;;;5069327;28;20028;-61
2023/10/11 09:48:37;;;;;;;12.55;11.95;;;;;;;;;;5061783;28;20083;-63
2023/10/11 09:51:07;;;;;;;12.70;12.10;;;;;;;;;;5057491;28;20439;-63
2023/10/11 09:53:33;;;;;;;11.80;11.30;;;;;;;;;;5061268;28;20025;-63
2023/10/11 09:56:01;;;;;;;11.80;11.25;;;;;;;;;;5064383;28;20083;-63
2023/10/11 09:58:42;;;;;;;12.10;11.50;;;;;;;;;;5060363;28;21337;-63
2023/10/11 10:01:26;;;;;;;12.20;11.60;;;;;;;;;;5066346;28;20027;-62
2023/10/11 10:03:52;;;;;;;12.40;11.80;;;;;;;;;;5062798;28;20090;-62
2023/10/11 10:06:25;;;;;;;11.60;11.10;;;;;;;;;;5069843;28;20023;-63
2023/10/11 10:09:23;;;;;;;12.95;12.35;;;;;;;;;;5060417;28;20036;-63
2023/10/11 10:12:06;;;;;;;12.23;11.63;;;;;;;;;;5064268;28;20076;-63
2023/10/11 10:14:33;;;;;;;12.10;11.50;;;;;;;;;;5054219;28;20017;-65
2023/10/11 10:17:12;;;;;;;12.77;12.18;;;;;;;;;;5070695;28;20028;-64
2023/10/11 10:19:43;;;;;;;11.80;11.30;;;;;;;;;;5057924;28;20024;-62
2023/10/11 10:22:27;;;;;;;12.20;11.60;;;;;;;;;;5064838;28;20031;-62
2023/10/11 10:24:55;;;;;;;12.15;11.55;;;;;;;;;;5056855;28;20082;-63
2023/10/11 10:27:40;;;;;;;12.80;12.20;;;;;;;;;;5062305;28;20025;-63
2023/10/11 10:30:06;;;;;;;11.75;11.25;;;;;;;;;;5056995;28;20446;-64
2023/10/11 10:32:32;;;;;;;12.10;11.50;;;;;;;;;;5059500;28;20091;-63
2023/10/11 10:35:18;;;;;;;12.23;11.63;;;;;;;;;;5059864;28;20485;-64
2023/10/11 10:37:56;;;;;;;12.43;11.82;;;;;;;;;;5065530;28;20020;-61
2023/10/11 10:40:25;;;;;;;11.88;11.30;;;;;;;;;;5056847;28;20355;-64
2023/10/11 10:43:06;;;;;;;11.68;11.18;;;;;;;;;;5063569;28;20025;-65
2023/10/11 10:45:33;;;;;;;12.43;11.82;;;;;;;;;;5059701;28;20037;-64
2023/10/11 10:48:13;;;;;;;12.15;11.55;;;;;;;;;;5055868;28;20064;-64
2023/10/11 10:50:52;;;;;;;11.30;10.80;;;;;;;;;;5057169;28;20086;-64
2023/10/11 10:53:18;;;;;;;12.02;11.45;;;;;;;;;;5055565;28;20027;-65
2023/10/11 10:55:44;;;;;;;12.40;11.80;;;;;;;;;;5054458;28;20396;-63
2023/10/11 10:58:19;;;;;;;12.70;12.10;;;;;;;;;;5055111;28;20036;-63
2023/10/11 11:00:46;;;;;;;11.88;11.35;;;;;;;;;;5057950;28;20647;-62
2023/10/11 11:03:19;;;;;;;12.80;12.20;;;;;;;;;;5051746;28;20504;-62
2023/10/11 11:05:57;;;;;;;12.30;11.70;;;;;;;;;;5054599;28;20500;-63
2023/10/11 11:08:27;;;;;;;12.57;11.98;;;;;;;;;;5059685;28;20044;-62
2023/10/11 11:11:18;;;;;;;12.00;11.45;;;;;;;;;;5054558;28;20032;-64
2023/10/11 11:13:45;;;;;;;11.70;11.20;;;;;;;;;;5061972;28;20056;-63
2023/10/11 11:16:22;;;;;;;12.48;11.88;;;;;;;;;;5049866;28;20116;-64
2023/10/11 11:18:47;;;;;;;12.15;11.55;;;;;;;;;;5065212;28;20284;-63
2023/10/11 11:21:25;;;;;;;11.00;10.50;;;;;;;;;;5057290;28;20119;-63
2023/10/11 11:23:51;;;;;;;11.68;11.18;;;;;;;;;;5053107;28;20056;-64
2023/10/11 11:26:17;;;;;;;11.80;11.27;;;;;;;;;;5057777;28;20055;-65
2023/10/11 11:28:43;;;;;;;12.50;11.90;;;;;;;;;;5055447;28;20021;-63
2023/10/11 11:34:07;;;;;;;11.43;10.93;;;;;;;;;;5056942;28;20029;-64
2023/10/11 11:36:40;;;;;;;11.77;11.27;;;;;;;;;;5054438;28;20123;-63
2023/10/11 11:39:25;;;;;;;11.63;11.13;;;;;;;;;;5062308;28;20029;-63
2023/10/11 11:41:54;;;;;;;12.10;11.50;;;;;;;;;;5067372;28;20013;-62
2023/10/11 11:44:20;;;;;;;11.30;10.80;;;;;;;;;;5059384;28;20037;-64
2023/10/11 11:46:48;;;;;;;11.77;11.27;;;;;;;;;;5060953;28;20031;-63
2023/10/11 11:49:15;;;;;;;11.85;11.30;;;;;;;;;;5056578;28;20032;-61
2023/10/11 11:51:40;;;;;;;12.43;11.82;;;;;;;;;;5065558;28;20519;-63
2023/10/11 11:54:09;;;;;;;12.93;12.32;;;;;;;;;;5066758;28;20032;-64
2023/10/11 11:56:35;;;;;;;11.75;11.25;;;;;;;;;;5069628;28;20036;-63
2023/10/11 11:59:00;;;;;;;12.38;11.77;;;;;;;;;;5064406;28;20485;-62
2023/10/11 12:01:26;;;;;;;11.63;11.13;;;;;;;;;;5060225;28;20029;-60
2023/10/11 12:03:54;;;;;;;11.45;10.95;;;;;;;;;;5063758;28;20032;-64
2023/10/11 12:06:23;;;;;;;11.65;11.15;;;;;;;;;;5053976;28;20083;-63
2023/10/11 12:08:58;;;;;;;11.77;11.27;;;;;;;;;;5061185;28;20424;-65
2023/10/11 12:11:29;;;;;;;13.60;12.98;;;;;;;;;;5055632;28;20074;-63
2023/10/11 12:13:56;;;;;;;11.80;11.30;;;;;;;;;;5057371;28;20055;-63
2023/10/11 12:16:22;;;;;;;11.93;11.43;;;;;;;;;;5063128;28;20076;-63
2023/10/11 12:18:48;;;;;;;11.68;11.18;;;;;;;;;;5067862;28;20035;-63
2023/10/11 12:21:15;;;;;;;11.55;11.05;;;;;;;;;;5065049;28;20024;-62
2023/10/11 12:23:47;;;;;;;12.48;11.88;;;;;;;;;;5065154;28;20053;-63
2023/10/11 12:26:18;;;;;;;11.38;10.88;;;;;;;;;;5059525;28;20013;-65
2023/10/11 12:28:44;;;;;;;13.05;12.45;;;;;;;;;;5064361;28;20148;-67
2023/10/11 12:31:10;;;;;;;13.55;12.95;;;;;;;;;;5060840;28;20371;-65
2023/10/11 12:33:35;;;;;;;12.85;12.25;;;;;;;;;;5069834;28;20028;-64
2023/10/11 12:36:01;;;;;;;12.48;11.88;;;;;;;;;;5056742;28;20043;-64
2023/10/11 12:38:26;;;;;;;12.25;11.65;;;;;;;;;;5059735;28;20047;-63
2023/10/11 12:40:51;;;;;;;11.55;11.05;;;;;;;;;;5057384;28;20140;-62
2023/10/11 12:43:22;;;;;;;11.68;11.18;;;;;;;;;;5062672;28;20477;-64
2023/10/11 12:45:48;;;;;;;11.30;10.80;;;;;;;;;;5059195;28;20025;-62
2023/10/11 12:48:15;;;;;;;11.80;11.30;;;;;;;;;;5063326;28;20028;-62
2023/10/11 12:50:40;;;;;;;11.65;11.15;;;;;;;;;;5076324;28;20903;-62
2023/10/11 12:53:13;;;;;;;10.98;10.48;;;;;;;;;;5078607;28;20027;-62
2023/10/11 12:55:39;;;;;;;11.55;11.05;;;;;;;;;;5068990;28;20028;-62
2023/10/11 12:58:04;;;;;;;11.80;11.30;;;;;;;;;;5077869;28;20070;-62
2023/10/11 13:00:31;;;;;;;11.50;11.00;;;;;;;;;;5073614;28;20016;-63
2023/10/11 13:03:06;;;;;;;11.30;10.80;;;;;;;;;;5071038;28;20483;-62
2023/10/11 13:05:32;;;;;;;11.80;11.30;;;;;;;;;;5076738;28;20028;-61
2023/10/11 13:08:03;;;;;;;11.68;11.18;;;;;;;;;;5068951;28;20025;-62
2023/10/11 13:10:29;;;;;;;11.30;10.80;;;;;;;;;;5082591;28;20659;-61
2023/10/11 13:12:55;;;;;;;11.85;11.35;;;;;;;;;;5063970;28;20127;-63
2023/10/11 13:15:20;;;;;;;12.77;12.18;;;;;;;;;;5054106;28;20528;-63
2023/10/11 13:17:46;;;;;;;12.35;11.75;;;;;;;;;;5064167;28;20024;-65
2023/10/11 13:20:18;;;;;;;12.30;11.70;;;;;;;;;;5064722;28;21273;-65
2023/10/11 13:22:44;;;;;;;13.20;12.60;;;;;;;;;;5058821;28;20777;-64
2023/10/11 13:25:22;;;;;;;11.57;11.07;;;;;;;;;;5071398;28;20107;-65
2023/10/11 13:27:47;;;;;;;12.90;12.30;;;;;;;;;;5059488;28;20035;-64
2023/10/11 13:30:14;;;;;;;12.00;11.48;;;;;;;;;;5065527;28;20036;-64
2023/10/11 13:32:40;;;;;;;12.43;11.82;;;;;;;;;;5066300;28;20072;-63
2023/10/11 13:35:05;;;;;;;12.13;11.55;;;;;;;;;;5066760;28;20532;-63
2023/10/11 13:37:31;;;;;;;12.13;11.52;;;;;;;;;;5061876;28;20077;-63
2023/10/11 13:40:05;;;;;;;11.45;10.95;;;;;;;;;;5072115;28;20919;-64
2023/10/11 13:42:37;;;;;;;11.85;11.35;;;;;;;;;;5070658;28;20020;-64
2023/10/11 13:45:03;;;;;;;12.82;12.23;;;;;;;;;;5059681;28;20025;-68
2023/10/11 13:47:33;;;;;;;12.07;11.52;;;;;;;;;;5065653;28;20044;-64
2023/10/11 13:49:59;;;;;;;11.35;10.85;;;;;;;;;;5068325;28;20032;-64
2023/10/11 13:52:24;;;;;;;11.88;11.38;;;;;;;;;;5067293;28;20021;-67
2023/10/11 13:54:52;;;;;;;11.73;11.23;;;;;;;;;;5064611;28;20035;-65
2023/10/11 13:57:21;;;;;;;11.82;11.30;;;;;;;;;;5060644;28;21182;-65
2023/10/11 13:59:51;;;;;;;11.30;10.80;;;;;;;;;;5064686;28;20037;-66
2023/10/11 14:07:37;;;;;;;12.88;12.27;;;;;;;;;;5068157;28;20062;-65
2023/10/11 14:10:13;;;;;;;12.55;11.95;;;;;;;;;;5065576;28;20099;-65
2023/10/11 14:12:39;;;;;;;12.98;12.38;;;;;;;;;;5066205;28;20132;-65
2023/10/11 14:15:11;;;;;;;11.85;11.35;;;;;;;;;;5064618;28;20111;-65
2023/10/11 14:17:38;;;;;;;11.93;11.43;;;;;;;;;;5068351;28;20040;-63
2023/10/11 14:20:10;;;;;;;12.05;11.50;;;;;;;;;;5062485;28;20012;-64
2023/10/11 14:22:35;;;;;;;12.30;11.70;;;;;;;;;;5061169;28;20073;-62
2023/10/11 14:25:01;;;;;;;11.80;11.30;;;;;;;;;;5059256;28;20028;-64
2023/10/11 14:27:26;;;;;;;12.23;11.63;;;;;;;;;;5064358;28;20497;-63
2023/10/11 14:29:51;;;;;;;12.15;11.57;;;;;;;;;;5062210;28;20629;-62
2023/10/11 14:32:17;;;;;;;11.40;10.90;;;;;;;;;;5063149;28;20481;-63
2023/10/11 14:34:45;;;;;;;11.70;11.20;;;;;;;;;;5065080;28;20042;-64
2023/10/11 14:37:12;;;;;;;12.25;11.65;;;;;;;;;;5064025;28;20099;-65
2023/10/11 14:39:38;;;;;;;12.27;11.68;;;;;;;;;;5063207;28;20666;-64
2023/10/11 14:42:04;;;;;;;12.10;11.50;;;;;;;;;;5067807;28;20025;-66
2023/10/11 14:44:31;;;;;;;12.05;11.48;;;;;;;;;;5063558;28;20032;-59
2023/10/11 14:46:56;;;;;;;11.45;10.95;;;;;;;;;;5066293;28;20404;-64
2023/10/11 14:49:23;;;;;;;12.27;11.68;;;;;;;;;;5064584;28;20020;-65
2023/10/11 14:51:49;;;;;;;12.43;11.82;;;;;;;;;;5064352;28;20439;-68
2023/10/11 14:54:14;;;;;;;13.30;12.70;;;;;;;;;;5056716;28;20055;-65
2023/10/11 14:56:40;;;;;;;12.73;12.13;;;;;;;;;;5055417;28;20029;-65
2023/10/11 14:59:05;;;;;;;11.68;11.18;;;;;;;;;;5062836;28;20398;-63
2023/10/11 15:01:33;;;;;;;11.70;11.20;;;;;;;;;;5062088;28;20115;-66
2023/10/11 15:04:09;;;;;;;11.75;11.25;;;;;;;;;;5066854;28;20432;-64
2023/10/11 15:06:37;;;;;;;12.25;11.65;;;;;;;;;;5068992;28;20017;-65
2023/10/11 15:09:08;;;;;;;12.57;11.98;;;;;;;;;;5058275;28;20045;-63
2023/10/11 15:11:34;;;;;;;11.40;10.90;;;;;;;;;;5060600;28;20028;-66
2023/10/11 15:14:03;;;;;;;12.77;12.18;;;;;;;;;;5054676;28;20498;-66
2023/10/11 15:16:29;;;;;;;12.07;11.48;;;;;;;;;;5059459;28;20070;-64
2023/10/11 15:18:54;;;;;;;12.27;11.68;;;;;;;;;;5064385;28;20036;-66
2023/10/11 15:21:19;;;;;;;12.68;12.07;;;;;;;;;;5059953;28;20029;-65
2023/10/11 15:23:45;;;;;;;11.90;11.30;;;;;;;;;;5063766;28;20066;-62
2023/10/11 15:26:10;;;;;;;11.48;10.98;;;;;;;;;;5058147;28;20033;-63
2023/10/11 15:28:35;;;;;;;12.13;11.52;;;;;;;;;;5059677;28;20016;-65
2023/10/11 15:31:04;;;;;;;12.60;12.00;;;;;;;;;;5057178;28;20043;-64